Time;durP1;ratioP1;P1;durP2;ratioP2;P2;SDS_P1;SDS_P2;PMS_P1;PMS_P2;Temp;Humidity;BMP_temperature;BMP_pressure;BME280_temperature;BME280_humidity;BME280_pressure;Samples;Min_cycle;Max_cycle;Signal;HPM_P1;HPM_P2
2023/02/25 00:13:40;;;;;;;24.63;15.63;;;4.20;99.90;;;;;;4761220;29;20326;-83
2023/02/25 00:33:51;;;;;;;23.03;13.63;;;4.10;99.90;;;;;;4715065;29;20908;-85
2023/02/25 01:04:06;;;;;;;19.37;12.43;;;4.20;99.90;;;;;;4664087;29;20572;-84
2023/02/25 01:24:45;;;;;;;22.57;14.80;;;4.30;99.90;;;;;;4765991;29;20306;-84
2023/02/25 02:09:57;;;;;;;21.37;12.67;;;3.90;99.90;;;;;;4803206;29;20572;-82
2023/02/25 02:35:21;;;;;;;23.57;13.13;;;3.90;99.90;;;;;;4610506;30;20566;-84
2023/02/25 04:00:25;;;;;;;22.10;11.73;;;3.60;99.90;;;;;;6118589;23;20596;-84
2023/02/25 04:25:36;;;;;;;20.27;12.20;;;3.30;99.90;;;;;;6074939;23;20191;-84
2023/02/25 04:45:41;;;;;;;24.17;13.07;;;2.90;99.90;;;;;;5884950;24;20430;-82
2023/02/25 05:11:26;;;;;;;19.83;12.93;;;2.60;99.90;;;;;;5877657;24;20209;-85
2023/02/25 05:41:12;;;;;;;19.40;12.53;;;2.70;99.90;;;;;;5703910;24;20762;-83
2023/02/25 06:11:37;;;;;;;19.10;12.37;;;2.70;99.90;;;;;;5872645;24;20304;-85
2023/02/25 06:37:25;;;;;;;23.53;13.37;;;2.90;99.90;;;;;;5919799;23;20206;-84
2023/02/25 07:18:08;;;;;;;23.97;15.20;;;3.00;99.90;;;;;;6035085;23;20542;-82
2023/02/25 07:48:40;;;;;;;27.03;16.00;;;3.30;99.90;;;;;;5985386;23;20166;-81
2023/02/25 08:18:53;;;;;;;24.60;15.30;;;3.90;99.90;;;;;;5834448;24;20180;-82
2023/02/25 09:14:37;;;;;;;19.27;13.87;;;4.90;99.90;;;;;;5794008;24;20176;-85
2023/02/25 10:00:28;;;;;;;13.47;9.73;;;6.00;95.90;;;;;;6100598;23;20205;-83
2023/02/25 10:25:16;;;;;;;11.70;7.93;;;5.10;99.90;;;;;;5875135;24;20462;-85
2023/02/25 11:26:29;;;;;;;7.23;5.67;;;4.80;99.90;;;;;;5917528;23;20729;-83
2023/02/25 12:27:32;;;;;;;3.87;2.27;;;5.20;99.90;;;;;;5774642;24;20200;-84
2023/02/25 12:52:34;;;;;;;6.53;4.53;;;4.60;99.90;;;;;;5625483;24;20209;-84
2023/02/25 13:22:57;;;;;;;4.67;3.40;;;3.10;99.90;;;;;;5763820;24;20218;-88
2023/02/25 13:53:21;;;;;;;3.53;3.13;;;5.00;99.90;;;;;;6093123;23;20240;-83
2023/02/25 14:13:39;;;;;;;2.20;2.00;;;5.30;99.90;;;;;;6014885;23;20221;-85
2023/02/25 14:39:23;;;;;;;3.00;2.60;;;4.80;99.90;;;;;;6131679;23;20168;-84
2023/02/25 15:43:44;;;;;;;8.07;6.03;;;3.80;99.90;;;;;;6200151;22;20148;-82
2023/02/25 15:53:47;;;;;;;8.80;6.50;;;3.80;99.90;;;;;;6178547;22;20191;-84
2023/02/25 16:29:04;;;;;;;7.90;5.90;;;3.70;99.90;;;;;;6201920;22;20301;-83
2023/02/25 16:43:43;;;;;;;9.97;7.37;;;3.40;99.90;;;;;;6148136;22;20199;-85
2023/02/25 17:14:29;;;;;;;9.73;7.03;;;3.30;99.90;;;;;;6120311;23;20444;-84
2023/02/25 17:44:58;;;;;;;12.87;8.30;;;3.30;99.90;;;;;;5894387;24;20280;-83
2023/02/25 18:15:29;;;;;;;13.00;9.37;;;3.20;99.90;;;;;;6224252;23;20207;-84
2023/02/25 18:30:33;;;;;;;11.00;7.50;;;3.10;99.90;;;;;;6261577;22;20147;-86
2023/02/25 18:55:55;;;;;;;14.23;10.23;;;3.10;99.90;;;;;;6073336;23;20196;-84
2023/02/25 19:36:19;;;;;;;17.03;10.80;;;3.10;99.90;;;;;;6247804;22;20175;-84
2023/02/25 20:06:46;;;;;;;13.13;8.40;;;3.30;99.90;;;;;;5969579;23;20180;-85
2023/02/25 20:37:17;;;;;;;8.80;7.87;;;3.20;99.90;;;;;;6224955;23;20171;-87
2023/02/25 21:07:25;;;;;;;8.67;6.67;;;3.20;99.90;;;;;;6085376;23;20191;-83
2023/02/25 21:53:14;;;;;;;5.10;4.23;;;2.90;99.90;;;;;;5889613;24;20763;-84
2023/02/25 23:39:10;;;;;;;4.33;3.93;;;2.20;99.60;;;;;;5757560;24;20527;-84
